sensor_id;sensor_type;location;lat;lon;timestamp;pressure;altitude;pressure_sealevel;temperature;humidity
70971;BME280;58632;51.718;19.446;2023-12-20T00:02:09;98845.54;;;5.73;100.00
70971;BME280;58632;51.718;19.446;2023-12-20T00:04:34;98844.20;;;5.72;100.00
70971;BME280;58632;51.718;19.446;2023-12-20T00:07:00;98842.92;;;5.73;100.00
70971;BME280;58632;51.718;19.446;2023-12-20T00:09:25;98841.06;;;5.78;100.00
70971;BME280;58632;51.718;19.446;2023-12-20T00:11:50;98835.95;;;5.80;100.00
70971;BME280;58632;51.718;19.446;2023-12-20T00:14:16;98832.35;;;5.82;100.00
70971;BME280;58632;51.718;19.446;2023-12-20T00:16:44;98834.95;;;5.85;100.00
70971;BME280;58632;51.718;19.446;2023-12-20T00:19:10;98834.54;;;5.88;100.00
70971;BME280;58632;51.718;19.446;2023-12-20T00:21:35;98839.03;;;5.91;100.00
70971;BME280;58632;51.718;19.446;2023-12-20T00:24:00;98837.67;;;5.91;100.00
70971;BME280;58632;51.718;19.446;2023-12-20T00:26:28;98836.86;;;5.92;100.00
70971;BME280;58632;51.718;19.446;2023-12-20T00:28:54;98829.34;;;5.94;100.00
70971;BME280;58632;51.718;19.446;2023-12-20T00:31:19;98826.36;;;5.93;100.00
70971;BME280;58632;51.718;19.446;2023-12-20T00:36:53;98823.98;;;5.95;100.00
70971;BME280;58632;51.718;19.446;2023-12-20T00:39:20;98822.02;;;5.96;100.00
70971;BME280;58632;51.718;19.446;2023-12-20T00:41:46;98815.73;;;5.98;100.00
70971;BME280;58632;51.718;19.446;2023-12-20T00:44:23;98812.42;;;6.01;100.00
70971;BME280;58632;51.718;19.446;2023-12-20T00:47:07;98811.45;;;6.03;100.00
70971;BME280;58632;51.718;19.446;2023-12-20T00:49:48;98810.63;;;6.05;100.00
70971;BME280;58632;51.718;19.446;2023-12-20T00:52:32;98803.50;;;6.05;100.00
70971;BME280;58632;51.718;19.446;2023-12-20T00:55:16;98799.92;;;6.07;100.00
70971;BME280;58632;51.718;19.446;2023-12-20T00:57:41;98802.45;;;6.03;100.00
70971;BME280;58632;51.718;19.446;2023-12-20T01:00:07;98798.84;;;6.01;100.00
70971;BME280;58632;51.718;19.446;2023-12-20T01:02:46;98805.08;;;6.01;100.00
70971;BME280;58632;51.718;19.446;2023-12-20T01:05:14;98806.77;;;6.02;100.00
70971;BME280;58632;51.718;19.446;2023-12-20T01:07:39;98807.42;;;6.05;100.00
70971;BME280;58632;51.718;19.446;2023-12-20T01:10:17;98811.94;;;6.06;100.00
70971;BME280;58632;51.718;19.446;2023-12-20T01:12:45;98806.29;;;6.10;100.00
70971;BME280;58632;51.718;19.446;2023-12-20T01:15:11;98805.85;;;6.12;100.00
70971;BME280;58632;51.718;19.446;2023-12-20T01:17:36;98806.52;;;6.13;100.00
70971;BME280;58632;51.718;19.446;2023-12-20T01:20:20;98800.12;;;6.11;100.00
70971;BME280;58632;51.718;19.446;2023-12-20T01:23:04;98797.42;;;6.10;100.00
70971;BME280;58632;51.718;19.446;2023-12-20T01:25:48;98796.15;;;6.07;100.00
70971;BME280;58632;51.718;19.446;2023-12-20T01:28:15;98788.92;;;6.07;100.00
70971;BME280;58632;51.718;19.446;2023-12-20T01:30:53;98793.17;;;6.07;100.00
70971;BME280;58632;51.718;19.446;2023-12-20T01:33:30;98785.27;;;6.07;100.00
70971;BME280;58632;51.718;19.446;2023-12-20T01:35:55;98778.11;;;6.07;100.00
70971;BME280;58632;51.718;19.446;2023-12-20T01:38:21;98772.00;;;6.06;100.00
70971;BME280;58632;51.718;19.446;2023-12-20T01:40:46;98771.15;;;6.11;100.00
70971;BME280;58632;51.718;19.446;2023-12-20T01:43:12;98766.45;;;6.15;100.00
70971;BME280;58632;51.718;19.446;2023-12-20T01:45:38;98767.33;;;6.19;100.00
70971;BME280;58632;51.718;19.446;2023-12-20T01:48:18;98763.10;;;6.20;100.00
70971;BME280;58632;51.718;19.446;2023-12-20T01:51:03;98767.55;;;6.21;100.00
70971;BME280;58632;51.718;19.446;2023-12-20T01:53:47;98765.22;;;6.22;100.00
70971;BME280;58632;51.718;19.446;2023-12-20T01:56:31;98757.95;;;6.20;100.00
70971;BME280;58632;51.718;19.446;2023-12-20T01:58:57;98753.35;;;6.21;100.00
70971;BME280;58632;51.718;19.446;2023-12-20T02:01:23;98746.52;;;6.26;100.00
70971;BME280;58632;51.718;19.446;2023-12-20T02:03:49;98743.38;;;6.30;100.00
70971;BME280;58632;51.718;19.446;2023-12-20T02:06:15;98735.30;;;6.35;100.00
70971;BME280;58632;51.718;19.446;2023-12-20T02:08:41;98732.66;;;6.38;100.00
70971;BME280;58632;51.718;19.446;2023-12-20T02:11:25;98727.48;;;6.38;100.00
70971;BME280;58632;51.718;19.446;2023-12-20T02:13:51;98725.30;;;6.40;100.00
70971;BME280;58632;51.718;19.446;2023-12-20T02:16:35;98721.63;;;6.41;100.00
70971;BME280;58632;51.718;19.446;2023-12-20T02:19:19;98721.38;;;6.39;100.00
70971;BME280;58632;51.718;19.446;2023-12-20T02:22:11;98721.89;;;6.38;100.00
70971;BME280;58632;51.718;19.446;2023-12-20T02:24:39;98721.02;;;6.38;100.00
70971;BME280;58632;51.718;19.446;2023-12-20T02:27:10;98718.18;;;6.39;100.00
70971;BME280;58632;51.718;19.446;2023-12-20T02:29:35;98718.81;;;6.39;100.00
70971;BME280;58632;51.718;19.446;2023-12-20T02:32:01;98721.98;;;6.40;100.00
70971;BME280;58632;51.718;19.446;2023-12-20T02:34:29;98719.23;;;6.39;100.00
70971;BME280;58632;51.718;19.446;2023-12-20T02:36:54;98717.66;;;6.35;100.00
70971;BME280;58632;51.718;19.446;2023-12-20T02:39:20;98714.53;;;6.28;100.00
70971;BME280;58632;51.718;19.446;2023-12-20T02:41:46;98716.66;;;6.26;100.00
70971;BME280;58632;51.718;19.446;2023-12-20T02:44:12;98717.30;;;6.24;100.00
70971;BME280;58632;51.718;19.446;2023-12-20T02:46:37;98714.59;;;6.24;100.00
70971;BME280;58632;51.718;19.446;2023-12-20T02:49:02;98708.16;;;6.24;100.00
70971;BME280;58632;51.718;19.446;2023-12-20T02:51:31;98712.64;;;6.26;100.00
70971;BME280;58632;51.718;19.446;2023-12-20T02:53:56;98711.58;;;6.25;100.00
70971;BME280;58632;51.718;19.446;2023-12-20T02:56:24;98712.44;;;6.21;100.00
70971;BME280;58632;51.718;19.446;2023-12-20T02:58:50;98708.45;;;6.21;100.00
70971;BME280;58632;51.718;19.446;2023-12-20T03:01:15;98709.52;;;6.20;100.00
70971;BME280;58632;51.718;19.446;2023-12-20T03:03:41;98706.79;;;6.22;100.00
70971;BME280;58632;51.718;19.446;2023-12-20T03:06:06;98703.14;;;6.25;100.00
70971;BME280;58632;51.718;19.446;2023-12-20T03:08:31;98706.38;;;6.30;100.00
70971;BME280;58632;51.718;19.446;2023-12-20T03:10:59;98704.20;;;6.35;100.00
70971;BME280;58632;51.718;19.446;2023-12-20T03:13:24;98699.34;;;6.34;100.00
70971;BME280;58632;51.718;19.446;2023-12-20T03:15:52;98698.44;;;6.31;100.00
70971;BME280;58632;51.718;19.446;2023-12-20T03:18:17;98702.59;;;6.30;100.00
70971;BME280;58632;51.718;19.446;2023-12-20T03:20:43;98691.00;;;6.31;100.00
70971;BME280;58632;51.718;19.446;2023-12-20T03:23:08;98687.23;;;6.31;100.00
70971;BME280;58632;51.718;19.446;2023-12-20T03:25:34;98681.61;;;6.32;100.00
70971;BME280;58632;51.718;19.446;2023-12-20T03:28:00;98682.77;;;6.33;100.00
70971;BME280;58632;51.718;19.446;2023-12-20T03:30:25;98692.30;;;6.36;100.00
70971;BME280;58632;51.718;19.446;2023-12-20T03:32:53;98684.52;;;6.36;100.00
70971;BME280;58632;51.718;19.446;2023-12-20T03:35:19;98685.03;;;6.37;100.00
70971;BME280;58632;51.718;19.446;2023-12-20T03:37:44;98678.77;;;6.38;100.00
70971;BME280;58632;51.718;19.446;2023-12-20T03:40:10;98678.81;;;6.38;100.00
70971;BME280;58632;51.718;19.446;2023-12-20T03:42:35;98678.25;;;6.37;100.00
70971;BME280;58632;51.718;19.446;2023-12-20T03:45:00;98681.35;;;6.35;100.00
70971;BME280;58632;51.718;19.446;2023-12-20T03:47:26;98680.43;;;6.33;100.00
70971;BME280;58632;51.718;19.446;2023-12-20T03:49:51;98684.34;;;6.34;100.00
70971;BME280;58632;51.718;19.446;2023-12-20T03:52:17;98687.69;;;6.36;100.00
70971;BME280;58632;51.718;19.446;2023-12-20T03:54:42;98688.27;;;6.36;100.00
70971;BME280;58632;51.718;19.446;2023-12-20T03:57:08;98690.96;;;6.35;100.00
70971;BME280;58632;51.718;19.446;2023-12-20T03:59:37;98696.08;;;6.37;100.00
70971;BME280;58632;51.718;19.446;2023-12-20T04:02:03;98695.31;;;6.36;100.00
70971;BME280;58632;51.718;19.446;2023-12-20T04:04:29;98692.44;;;6.35;100.00
70971;BME280;58632;51.718;19.446;2023-12-20T04:06:54;98690.41;;;6.38;100.00
70971;BME280;58632;51.718;19.446;2023-12-20T04:09:19;98688.81;;;6.38;100.00
70971;BME280;58632;51.718;19.446;2023-12-20T04:11:45;98688.23;;;6.40;100.00
70971;BME280;58632;51.718;19.446;2023-12-20T04:14:10;98689.86;;;6.40;100.00
70971;BME280;58632;51.718;19.446;2023-12-20T04:16:36;98689.45;;;6.41;100.00
70971;BME280;58632;51.718;19.446;2023-12-20T04:19:01;98691.21;;;6.34;100.00
70971;BME280;58632;51.718;19.446;2023-12-20T04:21:27;98692.84;;;6.27;100.00
70971;BME280;58632;51.718;19.446;2023-12-20T04:23:53;98687.17;;;6.23;100.00
70971;BME280;58632;51.718;19.446;2023-12-20T04:26:21;98683.66;;;6.19;100.00
70971;BME280;58632;51.718;19.446;2023-12-20T04:28:46;98683.27;;;6.13;100.00
70971;BME280;58632;51.718;19.446;2023-12-20T04:31:12;98683.91;;;6.10;100.00
70971;BME280;58632;51.718;19.446;2023-12-20T04:33:37;98682.66;;;6.10;100.00
70971;BME280;58632;51.718;19.446;2023-12-20T04:36:02;98683.05;;;6.10;100.00
70971;BME280;58632;51.718;19.446;2023-12-20T04:38:29;98682.90;;;6.07;100.00
70971;BME280;58632;51.718;19.446;2023-12-20T04:40:58;98678.09;;;6.04;100.00
70971;BME280;58632;51.718;19.446;2023-12-20T04:43:23;98677.98;;;6.00;100.00
70971;BME280;58632;51.718;19.446;2023-12-20T04:45:49;98679.93;;;5.98;100.00
70971;BME280;58632;51.718;19.446;2023-12-20T04:48:14;98678.27;;;5.98;100.00
70971;BME280;58632;51.718;19.446;2023-12-20T04:50:40;98678.15;;;6.02;100.00
70971;BME280;58632;51.718;19.446;2023-12-20T04:53:05;98676.89;;;6.04;100.00
70971;BME280;58632;51.718;19.446;2023-12-20T04:55:30;98674.61;;;6.05;100.00
70971;BME280;58632;51.718;19.446;2023-12-20T04:57:56;98669.69;;;6.07;100.00
70971;BME280;58632;51.718;19.446;2023-12-20T05:00:21;98672.82;;;6.06;100.00
70971;BME280;58632;51.718;19.446;2023-12-20T05:02:47;98670.35;;;6.02;100.00
70971;BME280;58632;51.718;19.446;2023-12-20T05:05:12;98671.09;;;6.02;100.00
70971;BME280;58632;51.718;19.446;2023-12-20T05:07:40;98670.61;;;6.01;100.00
70971;BME280;58632;51.718;19.446;2023-12-20T05:10:06;98673.42;;;6.03;100.00
70971;BME280;58632;51.718;19.446;2023-12-20T05:12:33;98667.70;;;6.06;100.00
70971;BME280;58632;51.718;19.446;2023-12-20T05:14:58;98665.64;;;6.08;100.00
70971;BME280;58632;51.718;19.446;2023-12-20T05:17:24;98670.52;;;6.09;100.00
70971;BME280;58632;51.718;19.446;2023-12-20T05:19:52;98670.73;;;6.11;100.00
70971;BME280;58632;51.718;19.446;2023-12-20T05:22:18;98668.59;;;6.10;100.00
70971;BME280;58632;51.718;19.446;2023-12-20T05:24:44;98669.16;;;6.09;100.00
70971;BME280;58632;51.718;19.446;2023-12-20T05:27:09;98667.10;;;6.08;100.00
70971;BME280;58632;51.718;19.446;2023-12-20T05:29:34;98669.08;;;6.07;100.00
70971;BME280;58632;51.718;19.446;2023-12-20T05:32:00;98665.39;;;6.08;100.00
70971;BME280;58632;51.718;19.446;2023-12-20T05:34:25;98667.89;;;6.06;100.00
70971;BME280;58632;51.718;19.446;2023-12-20T05:36:51;98666.59;;;6.03;100.00
70971;BME280;58632;51.718;19.446;2023-12-20T05:39:17;98667.83;;;6.00;100.00
70971;BME280;58632;51.718;19.446;2023-12-20T05:41:43;98673.30;;;6.01;100.00
70971;BME280;58632;51.718;19.446;2023-12-20T05:44:10;98677.67;;;5.98;100.00
70971;BME280;58632;51.718;19.446;2023-12-20T05:46:36;98676.64;;;5.96;100.00
70971;BME280;58632;51.718;19.446;2023-12-20T05:49:01;98679.47;;;5.93;100.00
70971;BME280;58632;51.718;19.446;2023-12-20T05:51:27;98676.71;;;5.96;100.00
70971;BME280;58632;51.718;19.446;2023-12-20T05:53:52;98681.57;;;5.98;100.00
70971;BME280;58632;51.718;19.446;2023-12-20T05:56:18;98677.98;;;6.00;100.00
70971;BME280;58632;51.718;19.446;2023-12-20T05:58:43;98675.40;;;5.99;100.00
70971;BME280;58632;51.718;19.446;2023-12-20T06:01:11;98671.25;;;5.98;100.00
70971;BME280;58632;51.718;19.446;2023-12-20T06:03:41;98667.67;;;5.96;100.00
70971;BME280;58632;51.718;19.446;2023-12-20T06:06:07;98666.92;;;5.96;100.00
70971;BME280;58632;51.718;19.446;2023-12-20T06:08:33;98665.95;;;5.93;100.00
70971;BME280;58632;51.718;19.446;2023-12-20T06:10:58;98663.98;;;5.91;100.00
70971;BME280;58632;51.718;19.446;2023-12-20T06:13:23;98664.27;;;5.90;100.00
70971;BME280;58632;51.718;19.446;2023-12-20T06:15:51;98664.27;;;5.92;100.00
70971;BME280;58632;51.718;19.446;2023-12-20T06:18:17;98662.04;;;5.91;100.00
70971;BME280;58632;51.718;19.446;2023-12-20T06:20:42;98662.60;;;5.91;100.00
70971;BME280;58632;51.718;19.446;2023-12-20T06:23:08;98662.36;;;5.91;100.00
70971;BME280;58632;51.718;19.446;2023-12-20T06:25:33;98658.80;;;5.88;100.00
70971;BME280;58632;51.718;19.446;2023-12-20T06:27:59;98660.97;;;5.85;100.00
70971;BME280;58632;51.718;19.446;2023-12-20T06:30:24;98660.77;;;5.85;100.00
70971;BME280;58632;51.718;19.446;2023-12-20T06:32:50;98654.64;;;5.84;100.00
70971;BME280;58632;51.718;19.446;2023-12-20T06:35:16;98652.98;;;5.85;100.00
70971;BME280;58632;51.718;19.446;2023-12-20T06:37:43;98655.48;;;5.87;100.00
70971;BME280;58632;51.718;19.446;2023-12-20T06:40:09;98657.02;;;5.88;100.00
70971;BME280;58632;51.718;19.446;2023-12-20T06:42:35;98652.48;;;5.89;100.00
70971;BME280;58632;51.718;19.446;2023-12-20T06:45:01;98655.54;;;5.88;100.00
70971;BME280;58632;51.718;19.446;2023-12-20T06:47:26;98653.83;;;5.87;100.00
70971;BME280;58632;51.718;19.446;2023-12-20T06:49:52;98651.43;;;5.83;100.00
70971;BME280;58632;51.718;19.446;2023-12-20T06:52:17;98656.46;;;5.81;100.00
70971;BME280;58632;51.718;19.446;2023-12-20T06:54:43;98659.95;;;5.83;100.00
70971;BME280;58632;51.718;19.446;2023-12-20T06:57:08;98659.43;;;5.85;100.00
70971;BME280;58632;51.718;19.446;2023-12-20T06:59:38;98657.20;;;5.87;100.00
70971;BME280;58632;51.718;19.446;2023-12-20T07:02:03;98662.96;;;5.89;100.00
70971;BME280;58632;51.718;19.446;2023-12-20T07:04:30;98665.59;;;5.92;100.00
70971;BME280;58632;51.718;19.446;2023-12-20T07:06:55;98667.14;;;5.90;100.00
70971;BME280;58632;51.718;19.446;2023-12-20T07:09:22;98671.39;;;5.90;100.00
70971;BME280;58632;51.718;19.446;2023-12-20T07:11:48;98667.02;;;5.91;100.00
70971;BME280;58632;51.718;19.446;2023-12-20T07:14:14;98668.39;;;5.90;100.00
70971;BME280;58632;51.718;19.446;2023-12-20T07:16:39;98669.81;;;5.92;100.00
70971;BME280;58632;51.718;19.446;2023-12-20T07:19:05;98673.19;;;5.95;100.00
70971;BME280;58632;51.718;19.446;2023-12-20T07:21:31;98670.54;;;5.94;100.00
70971;BME280;58632;51.718;19.446;2023-12-20T07:23:56;98672.48;;;5.93;100.00
70971;BME280;58632;51.718;19.446;2023-12-20T07:26:22;98673.60;;;5.91;100.00
70971;BME280;58632;51.718;19.446;2023-12-20T07:28:48;98676.16;;;5.87;100.00
70971;BME280;58632;51.718;19.446;2023-12-20T07:31:15;98678.10;;;5.87;100.00
70971;BME280;58632;51.718;19.446;2023-12-20T07:33:42;98684.46;;;5.89;100.00
70971;BME280;58632;51.718;19.446;2023-12-20T07:36:08;98687.67;;;5.91;100.00
70971;BME280;58632;51.718;19.446;2023-12-20T07:38:34;98678.02;;;5.95;100.00
70971;BME280;58632;51.718;19.446;2023-12-20T07:40:59;98683.48;;;5.99;100.00
70971;BME280;58632;51.718;19.446;2023-12-20T07:43:25;98682.36;;;6.01;100.00
70971;BME280;58632;51.718;19.446;2023-12-20T07:45:50;98684.77;;;6.02;100.00
70971;BME280;58632;51.718;19.446;2023-12-20T07:48:16;98677.26;;;6.02;100.00
70971;BME280;58632;51.718;19.446;2023-12-20T07:50:41;98679.27;;;6.01;100.00
70971;BME280;58632;51.718;19.446;2023-12-20T07:53:07;98678.89;;;5.99;100.00
70971;BME280;58632;51.718;19.446;2023-12-20T07:55:33;98677.16;;;5.99;100.00
70971;BME280;58632;51.718;19.446;2023-12-20T07:57:58;98675.08;;;5.99;100.00
70971;BME280;58632;51.718;19.446;2023-12-20T08:00:24;98678.66;;;6.01;100.00
70971;BME280;58632;51.718;19.446;2023-12-20T08:02:49;98676.23;;;6.04;100.00
70971;BME280;58632;51.718;19.446;2023-12-20T08:05:14;98679.36;;;6.06;100.00
70971;BME280;58632;51.718;19.446;2023-12-20T08:07:40;98677.05;;;6.11;100.00
70971;BME280;58632;51.718;19.446;2023-12-20T08:10:06;98674.55;;;6.14;100.00
70971;BME280;58632;51.718;19.446;2023-12-20T08:12:31;98675.84;;;6.14;100.00
70971;BME280;58632;51.718;19.446;2023-12-20T08:14:56;98669.23;;;6.14;100.00
70971;BME280;58632;51.718;19.446;2023-12-20T08:17:22;98668.09;;;6.14;100.00
70971;BME280;58632;51.718;19.446;2023-12-20T08:19:48;98669.40;;;6.14;100.00
70971;BME280;58632;51.718;19.446;2023-12-20T08:22:14;98669.33;;;6.14;100.00
70971;BME280;58632;51.718;19.446;2023-12-20T08:24:39;98667.58;;;6.15;100.00
70971;BME280;58632;51.718;19.446;2023-12-20T08:27:05;98670.13;;;6.15;100.00
70971;BME280;58632;51.718;19.446;2023-12-20T08:29:30;98665.08;;;6.15;100.00
70971;BME280;58632;51.718;19.446;2023-12-20T08:31:55;98665.72;;;6.17;100.00
70971;BME280;58632;51.718;19.446;2023-12-20T08:34:21;98668.06;;;6.17;100.00
70971;BME280;58632;51.718;19.446;2023-12-20T08:36:46;98665.23;;;6.17;100.00
70971;BME280;58632;51.718;19.446;2023-12-20T08:39:12;98668.58;;;6.18;100.00
70971;BME280;58632;51.718;19.446;2023-12-20T08:41:37;98670.27;;;6.18;100.00
70971;BME280;58632;51.718;19.446;2023-12-20T08:44:03;98670.27;;;6.18;100.00
70971;BME280;58632;51.718;19.446;2023-12-20T08:46:31;98668.73;;;6.20;100.00
70971;BME280;58632;51.718;19.446;2023-12-20T08:48:56;98664.17;;;6.21;100.00
70971;BME280;58632;51.718;19.446;2023-12-20T08:51:22;98662.13;;;6.24;100.00
70971;BME280;58632;51.718;19.446;2023-12-20T08:53:50;98661.25;;;6.24;100.00
70971;BME280;58632;51.718;19.446;2023-12-20T08:56:16;98660.13;;;6.24;100.00
70971;BME280;58632;51.718;19.446;2023-12-20T08:58:43;98664.98;;;6.23;100.00
70971;BME280;58632;51.718;19.446;2023-12-20T09:01:08;98660.17;;;6.22;100.00
70971;BME280;58632;51.718;19.446;2023-12-20T09:03:34;98664.96;;;6.21;100.00
70971;BME280;58632;51.718;19.446;2023-12-20T09:05:59;98666.45;;;6.23;100.00
70971;BME280;58632;51.718;19.446;2023-12-20T09:08:27;98668.27;;;6.29;100.00
70971;BME280;58632;51.718;19.446;2023-12-20T09:10:56;98664.14;;;6.32;100.00
70971;BME280;58632;51.718;19.446;2023-12-20T09:13:21;98663.30;;;6.35;100.00
70971;BME280;58632;51.718;19.446;2023-12-20T09:15:51;98664.85;;;6.36;100.00
70971;BME280;58632;51.718;19.446;2023-12-20T09:18:17;98663.16;;;6.34;100.00
70971;BME280;58632;51.718;19.446;2023-12-20T09:20:42;98664.98;;;6.37;100.00
70971;BME280;58632;51.718;19.446;2023-12-20T09:23:07;98661.62;;;6.38;100.00
70971;BME280;58632;51.718;19.446;2023-12-20T09:25:33;98663.02;;;6.42;100.00
70971;BME280;58632;51.718;19.446;2023-12-20T09:27:58;98662.05;;;6.42;100.00
70971;BME280;58632;51.718;19.446;2023-12-20T09:30:24;98658.64;;;6.45;100.00
70971;BME280;58632;51.718;19.446;2023-12-20T09:32:50;98655.27;;;6.48;100.00
70971;BME280;58632;51.718;19.446;2023-12-20T09:35:15;98657.70;;;6.48;100.00
70971;BME280;58632;51.718;19.446;2023-12-20T09:37:41;98655.27;;;6.49;100.00
70971;BME280;58632;51.718;19.446;2023-12-20T09:40:10;98657.59;;;6.51;100.00
70971;BME280;58632;51.718;19.446;2023-12-20T09:43:02;98654.91;;;6.52;100.00
70971;BME280;58632;51.718;19.446;2023-12-20T09:45:24;98650.54;;;6.50;100.00
70971;BME280;58632;51.718;19.446;2023-12-20T09:47:50;98647.08;;;6.49;100.00
70971;BME280;58632;51.718;19.446;2023-12-20T09:50:17;98648.84;;;6.52;100.00
70971;BME280;58632;51.718;19.446;2023-12-20T09:52:46;98651.06;;;6.56;100.00
70971;BME280;58632;51.718;19.446;2023-12-20T09:55:12;98643.58;;;6.61;100.00
70971;BME280;58632;51.718;19.446;2023-12-20T09:57:38;98639.48;;;6.64;100.00
70971;BME280;58632;51.718;19.446;2023-12-20T10:00:04;98632.61;;;6.65;100.00
70971;BME280;58632;51.718;19.446;2023-12-20T10:02:32;98628.98;;;6.65;100.00
70971;BME280;58632;51.718;19.446;2023-12-20T10:04:57;98630.56;;;6.66;100.00
70971;BME280;58632;51.718;19.446;2023-12-20T10:07:23;98629.55;;;6.62;100.00
70971;BME280;58632;51.718;19.446;2023-12-20T10:09:48;98625.82;;;6.60;100.00
70971;BME280;58632;51.718;19.446;2023-12-20T10:12:14;98625.77;;;6.55;100.00
70971;BME280;58632;51.718;19.446;2023-12-20T10:14:39;98625.90;;;6.50;100.00
70971;BME280;58632;51.718;19.446;2023-12-20T10:17:05;98619.83;;;6.46;100.00
70971;BME280;58632;51.718;19.446;2023-12-20T10:19:33;98624.73;;;6.46;100.00
70971;BME280;58632;51.718;19.446;2023-12-20T10:21:59;98622.38;;;6.47;100.00
70971;BME280;58632;51.718;19.446;2023-12-20T10:24:24;98621.88;;;6.46;100.00
70971;BME280;58632;51.718;19.446;2023-12-20T10:27:00;98614.41;;;6.45;100.00
70971;BME280;58632;51.718;19.446;2023-12-20T10:29:26;98615.72;;;6.50;100.00
70971;BME280;58632;51.718;19.446;2023-12-20T10:31:51;98614.98;;;6.51;100.00
70971;BME280;58632;51.718;19.446;2023-12-20T10:34:22;98607.15;;;6.51;100.00
70971;BME280;58632;51.718;19.446;2023-12-20T10:36:48;98604.73;;;6.51;100.00
70971;BME280;58632;51.718;19.446;2023-12-20T10:39:13;98606.77;;;6.44;100.00
70971;BME280;58632;51.718;19.446;2023-12-20T10:41:40;98605.96;;;6.43;100.00
70971;BME280;58632;51.718;19.446;2023-12-20T10:44:07;98610.38;;;6.39;100.00
70971;BME280;58632;51.718;19.446;2023-12-20T10:46:34;98610.08;;;6.38;100.00
70971;BME280;58632;51.718;19.446;2023-12-20T10:49:02;98607.22;;;6.32;100.00
70971;BME280;58632;51.718;19.446;2023-12-20T10:51:27;98602.23;;;6.32;100.00
70971;BME280;58632;51.718;19.446;2023-12-20T10:53:55;98604.40;;;6.32;100.00
70971;BME280;58632;51.718;19.446;2023-12-20T10:56:21;98610.13;;;6.31;100.00
70971;BME280;58632;51.718;19.446;2023-12-20T10:58:48;98607.50;;;6.32;100.00
70971;BME280;58632;51.718;19.446;2023-12-20T11:01:14;98605.90;;;6.30;100.00
70971;BME280;58632;51.718;19.446;2023-12-20T11:03:43;98608.79;;;6.31;100.00
70971;BME280;58632;51.718;19.446;2023-12-20T11:11:27;98600.38;;;6.30;100.00
70971;BME280;58632;51.718;19.446;2023-12-20T11:14:00;98598.48;;;6.26;100.00
70971;BME280;58632;51.718;19.446;2023-12-20T11:16:31;98597.61;;;6.29;100.00
70971;BME280;58632;51.718;19.446;2023-12-20T11:18:56;98597.23;;;6.28;100.00
70971;BME280;58632;51.718;19.446;2023-12-20T11:21:22;98595.96;;;6.24;100.00
70971;BME280;58632;51.718;19.446;2023-12-20T11:23:47;98591.23;;;6.20;100.00
70971;BME280;58632;51.718;19.446;2023-12-20T11:26:15;98595.24;;;6.16;100.00
70971;BME280;58632;51.718;19.446;2023-12-20T11:28:40;98590.45;;;6.15;100.00
70971;BME280;58632;51.718;19.446;2023-12-20T11:31:06;98591.34;;;6.21;100.00
70971;BME280;58632;51.718;19.446;2023-12-20T11:33:38;98590.14;;;6.27;100.00
70971;BME280;58632;51.718;19.446;2023-12-20T11:36:07;98587.41;;;6.34;100.00
70971;BME280;58632;51.718;19.446;2023-12-20T11:38:38;98582.38;;;6.39;100.00
70971;BME280;58632;51.718;19.446;2023-12-20T11:41:06;98584.88;;;6.37;100.00
70971;BME280;58632;51.718;19.446;2023-12-20T11:43:32;98586.90;;;6.33;100.00
70971;BME280;58632;51.718;19.446;2023-12-20T11:46:06;98579.50;;;6.33;100.00
70971;BME280;58632;51.718;19.446;2023-12-20T11:48:33;98578.39;;;6.38;100.00
70971;BME280;58632;51.718;19.446;2023-12-20T11:50:59;98577.18;;;6.46;100.00
70971;BME280;58632;51.718;19.446;2023-12-20T11:53:25;98571.08;;;6.54;100.00
70971;BME280;58632;51.718;19.446;2023-12-20T11:55:50;98566.81;;;6.56;100.00
70971;BME280;58632;51.718;19.446;2023-12-20T11:58:16;98569.25;;;6.55;100.00
70971;BME280;58632;51.718;19.446;2023-12-20T12:00:42;98566.34;;;6.56;100.00
70971;BME280;58632;51.718;19.446;2023-12-20T12:03:10;98562.94;;;6.58;100.00
70971;BME280;58632;51.718;19.446;2023-12-20T12:05:39;98559.43;;;6.64;100.00
70971;BME280;58632;51.718;19.446;2023-12-20T12:08:05;98558.81;;;6.67;100.00
70971;BME280;58632;51.718;19.446;2023-12-20T12:10:30;98550.79;;;6.63;100.00
70971;BME280;58632;51.718;19.446;2023-12-20T12:12:56;98552.13;;;6.58;100.00
70971;BME280;58632;51.718;19.446;2023-12-20T12:15:24;98552.79;;;6.57;100.00
70971;BME280;58632;51.718;19.446;2023-12-20T12:17:53;98556.29;;;6.59;100.00
70971;BME280;58632;51.718;19.446;2023-12-20T12:20:22;98554.66;;;6.52;100.00
70971;BME280;58632;51.718;19.446;2023-12-20T12:22:58;98555.85;;;6.45;100.00
70971;BME280;58632;51.718;19.446;2023-12-20T12:25:23;98555.35;;;6.39;100.00
70971;BME280;58632;51.718;19.446;2023-12-20T12:27:49;98546.23;;;6.36;100.00
70971;BME280;58632;51.718;19.446;2023-12-20T12:30:16;98537.84;;;6.29;100.00
70971;BME280;58632;51.718;19.446;2023-12-20T12:32:43;98534.98;;;6.28;100.00
70971;BME280;58632;51.718;19.446;2023-12-20T12:35:09;98530.13;;;6.33;100.00
70971;BME280;58632;51.718;19.446;2023-12-20T12:37:35;98526.39;;;6.39;100.00
70971;BME280;58632;51.718;19.446;2023-12-20T12:40:03;98529.73;;;6.43;100.00
70971;BME280;58632;51.718;19.446;2023-12-20T12:42:30;98528.16;;;6.41;100.00
70971;BME280;58632;51.718;19.446;2023-12-20T12:44:55;98526.48;;;6.31;100.00
70971;BME280;58632;51.718;19.446;2023-12-20T12:47:21;98531.20;;;6.24;100.00
70971;BME280;58632;51.718;19.446;2023-12-20T12:49:47;98527.71;;;6.19;100.00
70971;BME280;58632;51.718;19.446;2023-12-20T12:52:16;98530.33;;;6.16;100.00
70971;BME280;58632;51.718;19.446;2023-12-20T12:54:42;98525.21;;;6.13;100.00
70971;BME280;58632;51.718;19.446;2023-12-20T12:57:07;98514.83;;;6.13;100.00
70971;BME280;58632;51.718;19.446;2023-12-20T12:59:33;98508.00;;;6.17;100.00